createdAt,value
2017-07-04T00:00:09.016Z,11.51
2017-07-04T00:00:37.062Z,11.41
2017-07-04T00:01:05.189Z,11.52
2017-07-04T00:01:33.306Z,11.45
2017-07-04T00:02:01.319Z,11.41
2017-07-04T00:02:29.363Z,11.46
2017-07-04T00:02:57.624Z,11.46
2017-07-04T00:03:25.749Z,11.49
2017-07-04T00:03:53.867Z,11.45
2017-07-04T00:04:21.984Z,11.46
2017-07-04T00:04:49.930Z,11.52
2017-07-04T00:05:18.175Z,11.46
2017-07-04T00:05:46.288Z,11.57
2017-07-04T00:06:14.500Z,11.53
2017-07-04T00:06:42.496Z,11.61
2017-07-04T00:07:10.623Z,11.61
2017-07-04T00:07:38.770Z,11.48
2017-07-04T00:08:06.936Z,11.53
2017-07-04T00:08:35.087Z,11.59
2017-07-04T00:09:03.217Z,11.49
2017-07-04T00:09:31.344Z,11.43
2017-07-04T00:09:59.446Z,11.49
2017-07-04T00:10:27.563Z,11.48
2017-07-04T00:10:55.698Z,11.39
2017-07-04T00:11:23.904Z,11.42
2017-07-04T00:11:51.936Z,11.38
2017-07-04T00:12:20.136Z,11.42
2017-07-04T00:12:48.352Z,11.46
2017-07-04T00:13:16.703Z,11.35
2017-07-04T00:13:44.874Z,11.46
2017-07-04T00:14:13.007Z,11.43
2017-07-04T00:14:41.141Z,11.51
2017-07-04T00:15:09.269Z,11.48
2017-07-04T00:15:37.403Z,11.45
2017-07-04T00:16:05.422Z,11.45
2017-07-04T00:16:33.667Z,11.39
2017-07-04T00:17:01.500Z,11.46
2017-07-04T00:17:29.677Z,11.45
2017-07-04T00:17:57.927Z,11.49
2017-07-04T00:18:26.147Z,11.48
2017-07-04T00:18:54.377Z,11.56
2017-07-04T00:19:22.381Z,11.43
2017-07-04T00:19:50.607Z,11.52
2017-07-04T00:20:18.696Z,11.48
2017-07-04T00:20:46.898Z,11.52
2017-07-04T00:21:15.118Z,11.52
2017-07-04T00:21:43.358Z,11.53
2017-07-04T00:22:11.468Z,11.43
2017-07-04T00:22:39.588Z,11.48
2017-07-04T00:23:07.889Z,11.48
2017-07-04T00:23:35.969Z,11.43
2017-07-04T00:24:04.013Z,11.45
2017-07-04T00:24:32.243Z,11.43
2017-07-04T00:25:00.349Z,11.49
2017-07-04T00:25:28.474Z,11.46
2017-07-04T00:25:56.459Z,11.43
2017-07-04T00:26:24.599Z,11.41
2017-07-04T00:26:52.506Z,11.46
2017-07-04T00:27:20.743Z,11.46
2017-07-04T00:27:49.012Z,11.45
2017-07-04T00:28:17.235Z,11.43
2017-07-04T00:28:45.378Z,11.49
2017-07-04T00:29:13.525Z,11.48
2017-07-04T00:29:41.657Z,11.39
2017-07-04T00:30:09.667Z,11.49
2017-07-04T00:30:37.918Z,11.43
2017-07-04T00:31:06.168Z,11.42
2017-07-04T00:31:34.321Z,11.48
2017-07-04T00:32:02.537Z,11.45
2017-07-04T00:32:30.776Z,11.43
2017-07-04T00:32:58.938Z,11.48
2017-07-04T00:33:27.154Z,11.45
2017-07-04T00:33:55.422Z,11.48
2017-07-04T00:34:23.635Z,11.43
2017-07-04T00:34:51.855Z,11.46
2017-07-04T00:35:20.090Z,11.48
2017-07-04T00:35:48.203Z,11.48
2017-07-04T00:36:16.458Z,11.31
2017-07-04T00:36:44.672Z,11.39
2017-07-04T00:37:12.789Z,11.43
2017-07-04T00:37:40.848Z,11.41
2017-07-04T00:38:08.886Z,11.43
2017-07-04T00:38:37.095Z,11.42
2017-07-04T00:39:05.193Z,11.41
2017-07-04T00:39:33.255Z,11.31
2017-07-04T00:40:01.376Z,11.46
2017-07-04T00:40:29.350Z,11.2
2017-07-04T00:40:57.460Z,11.35
2017-07-04T00:41:25.701Z,11.38
2017-07-04T00:41:53.921Z,11.23
2017-07-04T00:42:22.068Z,11.18
2017-07-04T00:42:50.072Z,11.35
2017-07-04T00:43:18.401Z,11.34
2017-07-04T00:43:46.437Z,11.31
2017-07-04T00:44:14.652Z,11.33
2017-07-04T00:44:42.903Z,11.35
2017-07-04T00:45:10.955Z,11.43
2017-07-04T00:45:39.148Z,11.38
2017-07-04T00:46:07.224Z,11.33
2017-07-04T00:46:35.374Z,11.38
2017-07-04T00:47:03.606Z,11.34
2017-07-04T00:47:31.707Z,11.38
2017-07-04T00:47:59.844Z,11.53
2017-07-04T00:48:28.090Z,11.46
2017-07-04T00:48:56.276Z,11.43
2017-07-04T00:49:24.285Z,11.45
2017-07-04T00:49:52.229Z,11.51
2017-07-04T00:50:20.443Z,11.53
2017-07-04T00:50:48.673Z,11.51
2017-07-04T00:51:16.786Z,11.38
2017-07-04T00:51:44.819Z,11.35
2017-07-04T00:52:13.041Z,11.42
2017-07-04T00:52:41.140Z,11.3
2017-07-04T00:53:09.265Z,11.39
2017-07-04T00:53:37.579Z,11.43
2017-07-04T00:54:05.806Z,11.34
2017-07-04T00:54:33.901Z,11.45
2017-07-04T00:55:02.036Z,11.28
2017-07-04T00:55:30.239Z,11.27
2017-07-04T00:55:58.381Z,11.27
2017-07-04T00:56:26.474Z,11.3
2017-07-04T00:56:54.420Z,11.3
2017-07-04T00:57:22.625Z,11.38
2017-07-04T00:57:50.819Z,11.3
2017-07-04T00:58:18.918Z,11.2
2017-07-04T00:58:47.231Z,11.16
2017-07-04T00:59:15.150Z,11.2
2017-07-04T00:59:43.246Z,11.26
2017-07-04T01:00:11.391Z,11.23
2017-07-04T01:00:39.509Z,11.3
2017-07-04T01:01:07.741Z,11.28
2017-07-04T01:01:35.805Z,11.3
2017-07-04T01:02:03.962Z,11.13
2017-07-04T01:02:32.038Z,11.3
2017-07-04T01:03:00.249Z,11.24
2017-07-04T01:03:28.394Z,11.28
2017-07-04T01:03:56.556Z,11.3
2017-07-04T01:04:24.667Z,11.34
2017-07-04T01:04:52.875Z,11.31
2017-07-04T01:05:21.128Z,11.3
2017-07-04T01:05:49.372Z,11.3
2017-07-04T01:06:17.421Z,11.23
2017-07-04T01:06:45.540Z,11.3
2017-07-04T01:07:13.641Z,11.24
2017-07-04T01:07:41.687Z,11.31
2017-07-04T01:08:09.702Z,11.26
2017-07-04T01:08:37.918Z,11.2
2017-07-04T01:09:05.937Z,11.33
2017-07-04T01:09:34.114Z,11.18
2017-07-04T01:10:02.323Z,11.24
2017-07-04T01:10:30.330Z,11.23
2017-07-04T01:10:58.408Z,11.35
2017-07-04T01:11:26.539Z,11.15
2017-07-04T01:11:54.773Z,11.16
2017-07-04T01:12:23.041Z,11.27
2017-07-04T01:12:51.095Z,11.2
2017-07-04T01:13:19.257Z,11.26
2017-07-04T01:13:47.608Z,11.16
2017-07-04T01:14:15.750Z,11.23
2017-07-04T01:14:43.854Z,11.24
2017-07-04T01:15:12.001Z,11.24
2017-07-04T01:15:40.251Z,11.16
2017-07-04T01:16:08.417Z,11.15
2017-07-04T01:16:36.647Z,11.1
2017-07-04T01:17:04.675Z,11.15
2017-07-04T01:17:32.811Z,11.18
2017-07-04T01:18:00.958Z,11.23
2017-07-04T01:18:29.173Z,11.18
2017-07-04T01:18:57.410Z,11.23
2017-07-04T01:19:25.514Z,11.26
2017-07-04T01:19:53.699Z,11.18
2017-07-04T01:20:21.762Z,11.26
2017-07-04T01:20:50.031Z,11.15
2017-07-04T01:21:17.878Z,11.28
2017-07-04T01:21:46.004Z,11.35
2017-07-04T01:22:14.107Z,11.38
2017-07-04T01:22:42.257Z,11.18
2017-07-04T01:23:10.483Z,11.31
2017-07-04T01:23:38.630Z,11.3
2017-07-04T01:24:06.972Z,11.28
2017-07-04T01:24:35.075Z,11.3
2017-07-04T01:25:03.188Z,11.16
2017-07-04T01:25:31.424Z,11.27
2017-07-04T01:25:59.635Z,11.23
2017-07-04T01:26:27.739Z,11.23
2017-07-04T01:26:55.967Z,11.23
2017-07-04T01:27:24.172Z,11.15
2017-07-04T01:27:52.433Z,11.1
2017-07-04T01:28:20.575Z,11.12
2017-07-04T01:28:48.673Z,11.2
2017-07-04T01:29:16.973Z,11.26
2017-07-04T01:29:45.023Z,11.23
2017-07-04T01:30:13.237Z,11.15
2017-07-04T01:30:41.266Z,11.15
2017-07-04T01:31:09.454Z,11.1
2017-07-04T01:31:37.610Z,11.08
2017-07-04T01:32:05.750Z,11.15
2017-07-04T01:32:33.862Z,11.21
2017-07-04T01:33:01.977Z,11.15
2017-07-04T01:33:30.007Z,11.18
2017-07-04T01:33:58.354Z,11.23
2017-07-04T01:34:26.607Z,11.15
2017-07-04T01:34:54.825Z,11.15
2017-07-04T01:35:22.946Z,11.26
2017-07-04T01:35:51.020Z,11.21
2017-07-04T01:36:19.251Z,11.21
2017-07-04T01:36:47.389Z,11.26
2017-07-04T01:37:15.579Z,11.15
2017-07-04T01:37:43.786Z,11.23
2017-07-04T01:38:12.013Z,11.24
2017-07-04T01:38:40.140Z,11.18
2017-07-04T01:39:08.461Z,11.15
2017-07-04T01:39:36.709Z,11.2
2017-07-04T01:40:04.838Z,11.23
2017-07-04T01:40:33.029Z,11.26
2017-07-04T01:41:01.171Z,11.23
2017-07-04T01:41:29.188Z,11.21
2017-07-04T01:41:57.333Z,11.2
2017-07-04T01:42:25.282Z,11.24
2017-07-04T01:42:53.268Z,11.31
2017-07-04T01:43:21.483Z,11.33
2017-07-04T01:43:49.622Z,11.34
2017-07-04T01:44:17.999Z,11.28
2017-07-04T01:44:46.243Z,11.24
2017-07-04T01:45:14.469Z,11.27
2017-07-04T01:45:42.519Z,11.23
2017-07-04T01:46:10.606Z,11.27
2017-07-04T01:46:38.853Z,11.27
2017-07-04T01:47:06.903Z,11.24
2017-07-04T01:47:34.842Z,11.26
2017-07-04T01:48:02.924Z,11.28
2017-07-04T01:48:31.127Z,11.2
2017-07-04T01:48:59.213Z,11.28
2017-07-04T01:49:27.612Z,11.26
2017-07-04T01:49:55.625Z,11.24
2017-07-04T01:50:23.727Z,11.33
2017-07-04T01:50:51.983Z,11.21
2017-07-04T01:51:19.865Z,11.39
2017-07-04T01:51:48.100Z,11.16
2017-07-04T01:52:16.291Z,11.27
2017-07-04T01:52:44.425Z,11.38
2017-07-04T01:53:12.662Z,11.2
2017-07-04T01:53:40.754Z,11.24
2017-07-04T01:54:08.764Z,11.28
2017-07-04T01:54:37.001Z,11.23
2017-07-04T01:55:05.044Z,11.2
2017-07-04T01:55:33.148Z,11.27
2017-07-04T01:56:01.410Z,11.2
2017-07-04T01:56:29.683Z,11.24
2017-07-04T01:56:57.838Z,11.2
2017-07-04T01:57:26.082Z,11.2
2017-07-04T01:57:54.328Z,11.15
2017-07-04T01:58:22.442Z,11.27
2017-07-04T01:58:50.573Z,11.2
2017-07-04T01:59:18.867Z,11.18
2017-07-04T01:59:47.105Z,11.23
2017-07-04T02:00:15.158Z,11.24
2017-07-04T02:00:43.284Z,11.2
2017-07-04T02:01:11.530Z,11.23
2017-07-04T02:01:39.734Z,11.21
2017-07-04T02:02:07.950Z,11.27
2017-07-04T02:02:36.210Z,11.21
2017-07-04T02:03:04.465Z,11.27
2017-07-04T02:03:32.712Z,11.18
2017-07-04T02:04:00.956Z,11.27
2017-07-04T02:04:29.261Z,11.28
2017-07-04T02:04:57.193Z,11.23
2017-07-04T02:05:25.432Z,11.2
2017-07-04T02:05:53.641Z,11.23
2017-07-04T02:06:21.729Z,11.2
2017-07-04T02:06:49.924Z,11.18
2017-07-04T02:07:18.042Z,11.2
2017-07-04T02:07:46.181Z,11.1
2017-07-04T02:08:14.397Z,11.12
2017-07-04T02:08:42.632Z,11.21
2017-07-04T02:09:10.745Z,11.12
2017-07-04T02:09:38.756Z,11.18
2017-07-04T02:10:07.064Z,11.18
2017-07-04T02:10:35.271Z,11.18
2017-07-04T02:11:03.354Z,11.21
2017-07-04T02:11:31.592Z,11.27
2017-07-04T02:11:59.707Z,11.2
2017-07-04T02:12:27.945Z,11.3
2017-07-04T02:12:56.161Z,11.33
2017-07-04T02:13:24.319Z,11.31
2017-07-04T02:13:52.553Z,11.41
2017-07-04T02:14:20.795Z,11.43
2017-07-04T02:14:49.185Z,11.35
2017-07-04T02:15:17.215Z,11.48
2017-07-04T02:15:45.366Z,11.46
2017-07-04T02:16:13.516Z,11.45
2017-07-04T02:16:41.616Z,11.43
2017-07-04T02:17:09.836Z,11.53
2017-07-04T02:17:38.108Z,11.46
2017-07-04T02:18:06.366Z,11.43
2017-07-04T02:18:34.519Z,11.49
2017-07-04T02:19:02.737Z,11.63
2017-07-04T02:19:30.953Z,11.64
2017-07-04T02:19:59.148Z,11.46
2017-07-04T02:20:27.374Z,11.45
2017-07-04T02:20:55.601Z,11.63
2017-07-04T02:21:23.870Z,11.56
2017-07-04T02:21:52.013Z,11.66
2017-07-04T02:22:20.205Z,11.61
2017-07-04T02:22:48.279Z,11.61
2017-07-04T02:23:16.539Z,11.59
2017-07-04T02:23:44.685Z,11.61
2017-07-04T02:24:12.750Z,11.56
2017-07-04T02:24:41.113Z,11.53
2017-07-04T02:25:09.318Z,11.59
2017-07-04T02:25:37.452Z,11.63
2017-07-04T02:26:05.573Z,11.67
2017-07-04T02:26:33.496Z,11.59
2017-07-04T02:27:01.653Z,11.7
2017-07-04T02:27:29.856Z,11.57
2017-07-04T02:27:57.853Z,11.6
2017-07-04T02:28:26.053Z,11.57
2017-07-04T02:28:54.051Z,11.63
2017-07-04T02:29:22.310Z,11.61
2017-07-04T02:29:50.622Z,11.63
2017-07-04T02:30:18.837Z,11.59
2017-07-04T02:30:47.003Z,11.64
2017-07-04T02:31:15.248Z,11.7
2017-07-04T02:31:43.384Z,11.57
2017-07-04T02:32:11.505Z,11.6
2017-07-04T02:32:39.717Z,11.75
2017-07-04T02:33:07.710Z,11.67
2017-07-04T02:33:35.832Z,11.66
2017-07-04T02:34:03.811Z,11.63
2017-07-04T02:34:31.934Z,11.6
2017-07-04T02:35:00.119Z,11.75
2017-07-04T02:35:28.329Z,11.68
2017-07-04T02:35:56.408Z,11.59
2017-07-04T02:36:24.597Z,11.68
2017-07-04T02:36:52.861Z,11.61
2017-07-04T02:37:20.777Z,11.73
2017-07-04T02:37:48.954Z,11.68
2017-07-04T02:38:17.241Z,11.73
2017-07-04T02:38:45.162Z,11.68
2017-07-04T02:39:13.387Z,11.6
2017-07-04T02:39:41.656Z,11.66
2017-07-04T02:40:09.921Z,11.63
2017-07-04T02:40:38.064Z,11.66
2017-07-04T02:41:06.354Z,11.79
2017-07-04T02:41:34.631Z,11.73
2017-07-04T02:42:02.831Z,11.76
2017-07-04T02:42:31.046Z,11.78
2017-07-04T02:42:59.291Z,11.79
2017-07-04T02:43:27.410Z,11.84
2017-07-04T02:43:55.299Z,11.78
2017-07-04T02:44:23.294Z,11.73
2017-07-04T02:44:51.483Z,11.68
2017-07-04T02:45:19.839Z,11.79
2017-07-04T02:45:47.969Z,11.78
2017-07-04T02:46:16.155Z,11.84
2017-07-04T02:46:44.408Z,11.78
2017-07-04T02:47:12.618Z,11.79
2017-07-04T02:47:40.854Z,11.79
2017-07-04T02:48:09.074Z,11.84
2017-07-04T02:48:37.238Z,11.76
2017-07-04T02:49:05.323Z,11.81
2017-07-04T02:49:33.562Z,11.71
2017-07-04T02:50:01.629Z,11.81
2017-07-04T02:50:29.815Z,11.89
2017-07-04T02:50:58.105Z,11.84
2017-07-04T02:51:26.389Z,11.86
2017-07-04T02:51:54.558Z,11.84
2017-07-04T02:52:22.498Z,11.86
2017-07-04T02:52:50.700Z,11.86
2017-07-04T02:53:18.917Z,11.86
2017-07-04T02:53:46.874Z,11.86
2017-07-04T02:54:14.990Z,11.84
2017-07-04T02:54:43.094Z,11.78
2017-07-04T02:55:11.301Z,11.76
2017-07-04T02:55:39.393Z,11.78
2017-07-04T02:56:07.548Z,11.82
2017-07-04T02:56:35.793Z,11.82
2017-07-04T02:57:03.983Z,11.78
2017-07-04T02:57:32.009Z,11.94
2017-07-04T02:58:00.150Z,11.85
2017-07-04T02:58:28.191Z,11.95
2017-07-04T02:58:56.429Z,11.85
2017-07-04T02:59:24.684Z,11.88
2017-07-04T02:59:52.975Z,11.86
2017-07-04T03:00:21.375Z,11.85
2017-07-04T03:00:49.586Z,11.95
2017-07-04T03:01:17.798Z,11.85
2017-07-04T03:01:46.042Z,11.94
2017-07-04T03:02:14.153Z,11.89
2017-07-04T03:02:42.279Z,11.94
2017-07-04T03:03:10.398Z,11.88
2017-07-04T03:03:38.557Z,11.95
2017-07-04T03:04:06.581Z,11.88
2017-07-04T03:04:34.609Z,11.95
2017-07-04T03:05:02.721Z,11.88
2017-07-04T03:05:31.057Z,11.85
2017-07-04T03:05:59.135Z,11.95
2017-07-04T03:06:27.350Z,11.89
2017-07-04T03:06:55.425Z,11.94
2017-07-04T03:07:23.576Z,11.88
2017-07-04T03:07:51.813Z,11.95
2017-07-04T03:08:20.066Z,11.88
2017-07-04T03:08:48.275Z,11.94
2017-07-04T03:09:16.406Z,11.86
2017-07-04T03:09:44.602Z,11.89
2017-07-04T03:10:12.716Z,11.94
2017-07-04T03:10:40.867Z,11.97
2017-07-04T03:11:08.986Z,11.91
2017-07-04T03:11:36.842Z,11.95
2017-07-04T03:12:04.882Z,11.95
2017-07-04T03:12:33.129Z,11.86
2017-07-04T03:13:01.374Z,11.94
2017-07-04T03:13:29.492Z,11.94
2017-07-04T03:13:57.584Z,12.01
2017-07-04T03:14:25.812Z,11.95
2017-07-04T03:14:53.962Z,11.97
2017-07-04T03:15:21.953Z,11.95
2017-07-04T03:15:50.154Z,11.97
2017-07-04T03:16:18.297Z,11.91
2017-07-04T03:16:46.500Z,11.86
2017-07-04T03:17:14.629Z,11.91
2017-07-04T03:17:42.796Z,11.88
2017-07-04T03:18:10.936Z,11.94
2017-07-04T03:18:39.147Z,11.88
2017-07-04T03:19:07.067Z,11.91
2017-07-04T03:19:35.182Z,11.88
2017-07-04T03:20:03.294Z,11.86
2017-07-04T03:20:31.473Z,11.85
2017-07-04T03:20:59.486Z,11.86
2017-07-04T03:21:27.602Z,11.89
2017-07-04T03:21:55.822Z,11.86
2017-07-04T03:22:23.821Z,11.88
2017-07-04T03:22:51.762Z,11.86
2017-07-04T03:23:19.847Z,11.91
2017-07-04T03:23:47.955Z,11.88
2017-07-04T03:24:15.992Z,11.86
2017-07-04T03:24:43.997Z,11.95
2017-07-04T03:25:12.106Z,11.89
2017-07-04T03:25:40.447Z,11.94
2017-07-04T03:26:08.518Z,11.86
2017-07-04T03:26:36.503Z,11.94
2017-07-04T03:27:04.681Z,11.86
2017-07-04T03:27:32.785Z,11.82
2017-07-04T03:28:01.007Z,11.86
2017-07-04T03:28:29.170Z,11.79
2017-07-04T03:28:57.440Z,11.85
2017-07-04T03:29:25.407Z,11.81
2017-07-04T03:29:53.467Z,11.76
2017-07-04T03:30:21.625Z,11.75
2017-07-04T03:30:49.916Z,11.75
2017-07-04T03:31:18.141Z,11.71
2017-07-04T03:31:46.274Z,11.73
2017-07-04T03:32:14.542Z,11.67
2017-07-04T03:32:42.768Z,11.71
2017-07-04T03:33:10.895Z,11.71
2017-07-04T03:33:38.950Z,11.71
2017-07-04T03:34:06.995Z,11.75
2017-07-04T03:34:35.116Z,11.75
2017-07-04T03:35:03.338Z,11.66
2017-07-04T03:35:31.561Z,11.67
2017-07-04T03:35:59.876Z,11.67
2017-07-04T03:36:27.962Z,11.66
2017-07-04T03:36:56.102Z,11.66
2017-07-04T03:37:24.277Z,11.61
2017-07-04T03:37:52.386Z,11.67
2017-07-04T03:38:20.502Z,11.67
2017-07-04T03:38:48.624Z,11.7
2017-07-04T03:39:16.823Z,11.66
2017-07-04T03:39:45.049Z,11.63
2017-07-04T03:40:13.166Z,11.64
2017-07-04T03:40:41.409Z,11.73
2017-07-04T03:41:09.658Z,11.71
2017-07-04T03:41:37.794Z,11.66
2017-07-04T03:42:06.036Z,11.75
2017-07-04T03:42:34.188Z,11.63
2017-07-04T03:43:02.400Z,11.6
2017-07-04T03:43:30.524Z,11.59
2017-07-04T03:43:58.538Z,11.53
2017-07-04T03:44:26.720Z,11.45
2017-07-04T03:44:54.853Z,11.53
2017-07-04T03:45:22.657Z,11.6
2017-07-04T03:45:50.869Z,11.48
2017-07-04T03:46:18.880Z,11.57
2017-07-04T03:46:47.107Z,11.49
2017-07-04T03:47:15.280Z,11.63
2017-07-04T03:47:43.390Z,11.52
2017-07-04T03:48:11.608Z,11.49
2017-07-04T03:48:39.709Z,11.51
2017-07-04T03:49:07.822Z,11.49
2017-07-04T03:49:36.072Z,11.52
2017-07-04T03:50:04.232Z,11.53
2017-07-04T03:50:32.351Z,11.53
2017-07-04T03:51:00.588Z,11.51
2017-07-04T03:51:28.650Z,11.46
2017-07-04T03:51:56.775Z,11.51
2017-07-04T03:52:24.972Z,11.46
2017-07-04T03:52:53.007Z,11.46
2017-07-04T03:53:21.139Z,11.42
2017-07-04T03:53:49.139Z,11.41
2017-07-04T03:54:17.244Z,11.42
2017-07-04T03:54:45.284Z,11.48
2017-07-04T03:55:13.469Z,11.34
2017-07-04T03:55:41.694Z,11.42
2017-07-04T03:56:09.929Z,11.38
2017-07-04T03:56:38.132Z,11.34
2017-07-04T03:57:06.240Z,11.35
2017-07-04T03:57:34.471Z,11.34
2017-07-04T03:58:02.582Z,11.35
2017-07-04T03:58:30.802Z,11.31
2017-07-04T03:58:59.041Z,11.31
2017-07-04T03:59:27.259Z,11.26
2017-07-04T03:59:55.394Z,11.28
2017-07-04T04:00:23.430Z,11.21
2017-07-04T04:00:51.581Z,11.27
2017-07-04T04:01:19.895Z,11.35
2017-07-04T04:01:48.154Z,11.23
2017-07-04T04:02:16.274Z,11.27
2017-07-04T04:02:44.393Z,11.21
2017-07-04T04:03:12.462Z,11.3
2017-07-04T04:03:40.678Z,11.16
2017-07-04T04:04:08.912Z,11.27
2017-07-04T04:04:37.126Z,11.23
2017-07-04T04:05:05.217Z,11.3
2017-07-04T04:05:33.365Z,11.3
2017-07-04T04:06:01.570Z,11.33
2017-07-04T04:06:29.768Z,11.35
2017-07-04T04:06:57.972Z,11.38
2017-07-04T04:07:26.122Z,11.38
2017-07-04T04:07:54.334Z,11.42
2017-07-04T04:08:22.567Z,11.38
2017-07-04T04:08:50.550Z,11.43
2017-07-04T04:09:18.642Z,11.38
2017-07-04T04:09:46.677Z,11.39
2017-07-04T04:10:14.538Z,11.39
2017-07-04T04:10:42.564Z,11.43
2017-07-04T04:11:11.050Z,11.48
2017-07-04T04:11:39.293Z,11.35
2017-07-04T04:12:07.400Z,11.34
2017-07-04T04:12:35.632Z,11.33
2017-07-04T04:13:03.727Z,11.3
2017-07-04T04:13:31.649Z,11.24
2017-07-04T04:13:59.758Z,11.35
2017-07-04T04:14:27.985Z,11.38
2017-07-04T04:14:56.098Z,11.28
2017-07-04T04:15:24.316Z,11.28
2017-07-04T04:15:52.457Z,11.24
2017-07-04T04:16:20.545Z,11.16
2017-07-04T04:16:48.521Z,11.26
2017-07-04T04:17:16.652Z,11.18
2017-07-04T04:17:44.830Z,11.21
2017-07-04T04:18:13.037Z,11.28
2017-07-04T04:18:41.179Z,11.3
2017-07-04T04:19:09.411Z,11.2
2017-07-04T04:19:37.511Z,11.21
2017-07-04T04:20:05.602Z,11.27
2017-07-04T04:20:33.720Z,11.24
2017-07-04T04:21:01.863Z,11.26
2017-07-04T04:21:30.141Z,11.23
2017-07-04T04:21:58.299Z,11.15
2017-07-04T04:22:26.537Z,11.23
2017-07-04T04:22:54.605Z,11.18
2017-07-04T04:23:22.848Z,11.15
2017-07-04T04:23:51.078Z,11.13
2017-07-04T04:24:19.225Z,11.15
2017-07-04T04:24:47.309Z,11.12
2017-07-04T04:25:15.560Z,11.16
2017-07-04T04:25:43.822Z,11.12
2017-07-04T04:26:11.947Z,11.1
2017-07-04T04:26:40.240Z,11.15
2017-07-04T04:27:08.472Z,11.09
2017-07-04T04:27:36.424Z,11.16
2017-07-04T04:28:04.519Z,11.1
2017-07-04T04:28:32.735Z,11.16
2017-07-04T04:29:00.943Z,11.18
2017-07-04T04:29:28.991Z,11.21
2017-07-04T04:29:57.215Z,11.15
2017-07-04T04:30:25.327Z,11.18
2017-07-04T04:30:53.555Z,11.2
2017-07-04T04:31:21.841Z,11.23
2017-07-04T04:31:49.866Z,11.26
2017-07-04T04:32:18.060Z,11.2
2017-07-04T04:32:46.179Z,11.21
2017-07-04T04:33:14.225Z,11.26
2017-07-04T04:33:42.403Z,11.21
2017-07-04T04:34:10.508Z,11.18
2017-07-04T04:34:38.600Z,11.15
2017-07-04T04:35:06.629Z,11.16
2017-07-04T04:35:34.666Z,11.15
2017-07-04T04:36:02.936Z,11.18
2017-07-04T04:36:31.262Z,11.12
2017-07-04T04:36:59.285Z,11.15
2017-07-04T04:37:27.446Z,11.18
2017-07-04T04:37:55.812Z,11.15
2017-07-04T04:38:23.979Z,11.1
2017-07-04T04:38:52.138Z,11.13
2017-07-04T04:39:20.289Z,11.18
2017-07-04T04:39:48.335Z,11.06
2017-07-04T04:40:16.542Z,11.12
2017-07-04T04:40:44.767Z,11.12
2017-07-04T04:41:12.912Z,11.06
2017-07-04T04:41:41.152Z,11.09
2017-07-04T04:42:09.068Z,11.03
2017-07-04T04:42:37.096Z,11.06
2017-07-04T04:43:05.365Z,11.12
2017-07-04T04:43:33.577Z,11.15
2017-07-04T04:44:01.703Z,11.08
2017-07-04T04:44:29.918Z,11.15
2017-07-04T04:44:58.046Z,11.23
2017-07-04T04:45:26.225Z,11.2
2017-07-04T04:45:54.457Z,11.27
2017-07-04T04:46:22.383Z,11.24
2017-07-04T04:46:50.737Z,11.3
2017-07-04T04:47:19.004Z,11.27
2017-07-04T04:47:47.028Z,11.21
2017-07-04T04:48:15.296Z,11.26
2017-07-04T04:48:43.476Z,11.21
2017-07-04T04:49:11.583Z,11.28
2017-07-04T04:49:39.820Z,11.26
2017-07-04T04:50:07.970Z,11.15
2017-07-04T04:50:36.185Z,11.26
2017-07-04T04:51:04.333Z,11.24
2017-07-04T04:51:32.466Z,11.27
2017-07-04T04:52:00.946Z,11.2
2017-07-04T04:52:29.086Z,11.3
2017-07-04T04:52:57.045Z,11.23
2017-07-04T04:53:25.276Z,11.27
2017-07-04T04:53:53.504Z,11.21
2017-07-04T04:54:21.698Z,11.26
2017-07-04T04:54:49.917Z,11.15
2017-07-04T04:55:18.146Z,11.2
2017-07-04T04:55:46.176Z,11.16
2017-07-04T04:56:14.388Z,11.09
2017-07-04T04:56:42.694Z,11.12
2017-07-04T04:57:10.880Z,11.16
2017-07-04T04:57:38.996Z,11.1
2017-07-04T04:58:07.232Z,11.02
2017-07-04T04:58:35.373Z,11.06
2017-07-04T04:59:03.496Z,10.9
2017-07-04T04:59:31.626Z,10.95
2017-07-04T04:59:59.628Z,10.95
2017-07-04T05:00:27.881Z,11.05
2017-07-04T05:00:55.897Z,11.05
2017-07-04T05:01:24.117Z,11
2017-07-04T05:01:52.320Z,11.05
2017-07-04T05:02:20.659Z,10.98
2017-07-04T05:02:48.870Z,10.98
2017-07-04T05:03:16.988Z,10.91
2017-07-04T05:03:45.087Z,10.91
2017-07-04T05:04:13.342Z,10.9
2017-07-04T05:04:41.550Z,10.94
2017-07-04T05:05:09.575Z,10.94
2017-07-04T05:05:37.674Z,10.92
2017-07-04T05:06:05.805Z,10.95
2017-07-04T05:06:34.077Z,10.8
2017-07-04T05:07:02.170Z,10.77
2017-07-04T05:07:30.274Z,10.79
2017-07-04T05:07:58.377Z,10.7
2017-07-04T05:08:26.628Z,10.66
2017-07-04T05:08:54.754Z,10.65
2017-07-04T05:09:22.830Z,10.69
2017-07-04T05:09:51.126Z,10.69
2017-07-04T05:10:19.814Z,10.66
2017-07-04T05:10:47.961Z,10.58
2017-07-04T05:11:16.161Z,10.58
2017-07-04T05:11:44.362Z,10.58
2017-07-04T05:12:12.650Z,10.49
2017-07-04T05:12:40.908Z,10.51
2017-07-04T05:13:08.894Z,10.42
2017-07-04T05:13:37.117Z,10.51
2017-07-04T05:14:05.378Z,10.54
2017-07-04T05:14:33.577Z,10.47
2017-07-04T05:15:01.707Z,10.42
2017-07-04T05:15:29.658Z,10.47
2017-07-04T05:15:57.654Z,10.51
2017-07-04T05:16:25.862Z,10.41
2017-07-04T05:16:54.146Z,10.44
2017-07-04T05:17:22.416Z,10.42
2017-07-04T05:17:50.705Z,10.42
2017-07-04T05:18:18.825Z,10.46
2017-07-04T05:18:46.923Z,10.51
2017-07-04T05:19:15.175Z,10.52
2017-07-04T05:19:43.298Z,10.42
2017-07-04T05:20:11.295Z,10.39
2017-07-04T05:20:39.523Z,10.46
2017-07-04T05:21:07.617Z,10.42
2017-07-04T05:21:35.832Z,10.52
2017-07-04T05:22:04.109Z,10.51
2017-07-04T05:22:32.349Z,10.49
2017-07-04T05:23:00.388Z,10.51
2017-07-04T05:23:28.668Z,10.57
2017-07-04T05:23:56.891Z,10.49
2017-07-04T05:24:25.134Z,10.63
2017-07-04T05:24:53.406Z,10.61
2017-07-04T05:25:21.559Z,10.55
2017-07-04T05:25:49.662Z,10.61
2017-07-04T05:26:17.892Z,10.59
2017-07-04T05:26:45.772Z,10.47
2017-07-04T05:27:13.981Z,10.55
2017-07-04T05:27:41.973Z,10.42
2017-07-04T05:28:10.221Z,10.41
2017-07-04T05:28:38.291Z,10.46
2017-07-04T05:29:06.290Z,10.49
2017-07-04T05:29:34.527Z,10.55
2017-07-04T05:30:02.734Z,10.54
2017-07-04T05:30:30.845Z,10.59
2017-07-04T05:30:58.930Z,10.61
2017-07-04T05:31:27.181Z,10.63
2017-07-04T05:31:55.428Z,10.65
2017-07-04T05:32:23.909Z,10.61
2017-07-04T05:32:52.013Z,10.65
2017-07-04T05:33:20.146Z,10.67
2017-07-04T05:33:48.280Z,10.72
2017-07-04T05:34:16.382Z,10.69
2017-07-04T05:34:44.568Z,10.7
2017-07-04T05:35:12.767Z,10.69
2017-07-04T05:35:40.867Z,10.76
2017-07-04T05:36:08.888Z,10.76
2017-07-04T05:36:36.909Z,10.91
2017-07-04T05:37:05.051Z,10.85
2017-07-04T05:37:33.428Z,10.92
2017-07-04T05:38:01.702Z,10.94
2017-07-04T05:38:29.866Z,10.95
2017-07-04T05:38:57.999Z,10.94
2017-07-04T05:39:26.150Z,10.92
2017-07-04T05:39:54.304Z,10.94
2017-07-04T05:40:22.546Z,10.97
2017-07-04T05:40:50.797Z,10.94
2017-07-04T05:41:19.112Z,10.91
2017-07-04T05:41:47.242Z,10.94
2017-07-04T05:42:15.481Z,11
2017-07-04T05:42:43.426Z,10.94
2017-07-04T05:43:11.514Z,11.06
2017-07-04T05:43:39.831Z,11.08
2017-07-04T05:44:08.031Z,11.12
2017-07-04T05:44:36.340Z,11.15
2017-07-04T05:45:04.500Z,11.18
2017-07-04T05:45:32.705Z,11.24
2017-07-04T05:46:00.901Z,11.24
2017-07-04T05:46:29.167Z,11.27
2017-07-04T05:46:57.281Z,11.34
2017-07-04T05:47:25.232Z,11.15
2017-07-04T05:47:53.140Z,11.21
2017-07-04T05:48:21.403Z,11.33
2017-07-04T05:48:49.650Z,11.24
2017-07-04T05:49:17.627Z,11.24
2017-07-04T05:49:46.042Z,11.31
2017-07-04T05:50:14.307Z,11.31
2017-07-04T05:50:42.364Z,11.3
2017-07-04T05:51:10.554Z,11.43
2017-07-04T05:51:38.709Z,11.42
2017-07-04T05:52:06.952Z,11.39
2017-07-04T05:52:35.129Z,11.38
2017-07-04T05:53:03.315Z,11.34
2017-07-04T05:53:31.504Z,11.38
2017-07-04T05:53:59.693Z,11.45
2017-07-04T05:54:27.924Z,11.38
2017-07-04T05:54:56.144Z,11.38
2017-07-04T05:55:24.397Z,11.34
2017-07-04T05:55:52.619Z,11.48
2017-07-04T05:56:20.713Z,11.31
2017-07-04T05:56:48.929Z,11.41
2017-07-04T05:57:17.074Z,11.33
2017-07-04T05:57:45.303Z,11.35
2017-07-04T05:58:13.510Z,11.33
2017-07-04T05:58:41.658Z,11.48
2017-07-04T05:59:09.822Z,11.43
2017-07-04T05:59:37.926Z,11.43
2017-07-04T06:00:06.085Z,11.49
2017-07-04T06:00:34.089Z,11.48
2017-07-04T06:01:02.142Z,11.52
2017-07-04T06:01:30.253Z,11.43
2017-07-04T06:01:58.389Z,11.41
2017-07-04T06:02:26.615Z,11.45
2017-07-04T06:02:54.721Z,11.31
2017-07-04T06:03:22.898Z,11.43
2017-07-04T06:03:51.136Z,11.45